sensor_id;sensor_type;location;lat;lon;timestamp;P1;durP1;ratioP1;P2;durP2;ratioP2
18001;SDS011;9126;48.160;17.130;2022-11-20T00:01:27;42.50;;;34.87;;
18001;SDS011;9126;48.160;17.130;2022-11-20T00:03:55;40.83;;;33.97;;
18001;SDS011;9126;48.160;17.130;2022-11-20T00:06:24;41.47;;;36.23;;
18001;SDS011;9126;48.160;17.130;2022-11-20T00:08:53;38.50;;;34.03;;
18001;SDS011;9126;48.160;17.130;2022-11-20T00:11:22;38.60;;;34.43;;
18001;SDS011;9126;48.160;17.130;2022-11-20T00:13:50;37.67;;;31.97;;
18001;SDS011;9126;48.160;17.130;2022-11-20T00:16:21;33.40;;;26.97;;
18001;SDS011;9126;48.160;17.130;2022-11-20T00:18:49;28.90;;;25.80;;
18001;SDS011;9126;48.160;17.130;2022-11-20T00:21:16;31.47;;;25.17;;
18001;SDS011;9126;48.160;17.130;2022-11-20T00:23:46;57.73;;;27.63;;
18001;SDS011;9126;48.160;17.130;2022-11-20T00:26:13;89.47;;;30.80;;
18001;SDS011;9126;48.160;17.130;2022-11-20T00:28:42;32.73;;;24.07;;
18001;SDS011;9126;48.160;17.130;2022-11-20T00:31:11;82.70;;;29.67;;
18001;SDS011;9126;48.160;17.130;2022-11-20T00:33:38;32.37;;;23.30;;
18001;SDS011;9126;48.160;17.130;2022-11-20T00:36:07;28.93;;;22.77;;
18001;SDS011;9126;48.160;17.130;2022-11-20T00:38:36;29.47;;;23.47;;
18001;SDS011;9126;48.160;17.130;2022-11-20T00:41:05;29.57;;;23.00;;
18001;SDS011;9126;48.160;17.130;2022-11-20T00:43:33;25.87;;;23.37;;
18001;SDS011;9126;48.160;17.130;2022-11-20T00:46:01;26.17;;;23.57;;
18001;SDS011;9126;48.160;17.130;2022-11-20T00:48:29;28.13;;;22.53;;
18001;SDS011;9126;48.160;17.130;2022-11-20T00:50:56;25.87;;;23.17;;
18001;SDS011;9126;48.160;17.130;2022-11-20T00:53:24;24.80;;;22.13;;
18001;SDS011;9126;48.160;17.130;2022-11-20T00:55:54;25.53;;;22.83;;
18001;SDS011;9126;48.160;17.130;2022-11-20T00:58:23;27.47;;;24.67;;
18001;SDS011;9126;48.160;17.130;2022-11-20T01:00:51;29.80;;;26.30;;
18001;SDS011;9126;48.160;17.130;2022-11-20T01:03:19;30.20;;;26.93;;
18001;SDS011;9126;48.160;17.130;2022-11-20T01:05:45;30.73;;;26.90;;
18001;SDS011;9126;48.160;17.130;2022-11-20T01:08:12;33.60;;;29.50;;
18001;SDS011;9126;48.160;17.130;2022-11-20T01:10:39;31.17;;;27.00;;
18001;SDS011;9126;48.160;17.130;2022-11-20T01:13:06;30.80;;;25.27;;
18001;SDS011;9126;48.160;17.130;2022-11-20T01:15:52;30.57;;;26.53;;
18001;SDS011;9126;48.160;17.130;2022-11-20T01:18:19;30.47;;;27.30;;
18001;SDS011;9126;48.160;17.130;2022-11-20T01:20:46;30.90;;;27.13;;
18001;SDS011;9126;48.160;17.130;2022-11-20T01:23:13;30.87;;;27.67;;
18001;SDS011;9126;48.160;17.130;2022-11-20T01:25:40;28.43;;;25.47;;
18001;SDS011;9126;48.160;17.130;2022-11-20T01:28:07;26.83;;;23.20;;
18001;SDS011;9126;48.160;17.130;2022-11-20T01:30:34;28.47;;;25.53;;
18001;SDS011;9126;48.160;17.130;2022-11-20T01:33:02;27.80;;;25.00;;
18001;SDS011;9126;48.160;17.130;2022-11-20T01:35:29;31.97;;;28.43;;
18001;SDS011;9126;48.160;17.130;2022-11-20T01:37:56;32.37;;;27.87;;
18001;SDS011;9126;48.160;17.130;2022-11-20T01:40:23;33.17;;;28.80;;
18001;SDS011;9126;48.160;17.130;2022-11-20T01:42:51;35.90;;;31.40;;
18001;SDS011;9126;48.160;17.130;2022-11-20T01:45:56;45.37;;;36.37;;
18001;SDS011;9126;48.160;17.130;2022-11-20T01:48:29;47.93;;;37.47;;
18001;SDS011;9126;48.160;17.130;2022-11-20T01:51:01;49.33;;;40.70;;
18001;SDS011;9126;48.160;17.130;2022-11-20T01:53:30;39.00;;;34.57;;
18001;SDS011;9126;48.160;17.130;2022-11-20T01:56:01;37.10;;;32.57;;
18001;SDS011;9126;48.160;17.130;2022-11-20T01:58:32;35.47;;;31.27;;
18001;SDS011;9126;48.160;17.130;2022-11-20T02:01:02;30.17;;;26.37;;
18001;SDS011;9126;48.160;17.130;2022-11-20T02:03:31;29.80;;;25.93;;
18001;SDS011;9126;48.160;17.130;2022-11-20T02:06:01;28.77;;;25.83;;
18001;SDS011;9126;48.160;17.130;2022-11-20T02:08:33;27.67;;;24.57;;
18001;SDS011;9126;48.160;17.130;2022-11-20T02:11:01;29.27;;;25.63;;
18001;SDS011;9126;48.160;17.130;2022-11-20T02:13:28;28.40;;;25.47;;
18001;SDS011;9126;48.160;17.130;2022-11-20T02:16:18;28.23;;;24.97;;
18001;SDS011;9126;48.160;17.130;2022-11-20T02:18:50;29.07;;;25.87;;
18001;SDS011;9126;48.160;17.130;2022-11-20T02:21:23;28.10;;;25.20;;
18001;SDS011;9126;48.160;17.130;2022-11-20T02:24:01;26.47;;;23.17;;
18001;SDS011;9126;48.160;17.130;2022-11-20T02:26:31;26.93;;;23.17;;
18001;SDS011;9126;48.160;17.130;2022-11-20T02:29:00;26.70;;;23.90;;
18001;SDS011;9126;48.160;17.130;2022-11-20T02:31:28;29.07;;;25.97;;
18001;SDS011;9126;48.160;17.130;2022-11-20T02:33:55;28.23;;;25.27;;
18001;SDS011;9126;48.160;17.130;2022-11-20T02:36:23;28.30;;;25.30;;
18001;SDS011;9126;48.160;17.130;2022-11-20T02:38:52;29.33;;;26.40;;
18001;SDS011;9126;48.160;17.130;2022-11-20T02:41:21;28.47;;;25.40;;
18001;SDS011;9126;48.160;17.130;2022-11-20T02:43:56;27.50;;;24.70;;
18001;SDS011;9126;48.160;17.130;2022-11-20T02:46:23;31.53;;;27.93;;
18001;SDS011;9126;48.160;17.130;2022-11-20T02:48:50;31.50;;;28.00;;
18001;SDS011;9126;48.160;17.130;2022-11-20T02:51:17;33.33;;;29.43;;
18001;SDS011;9126;48.160;17.130;2022-11-20T02:53:44;32.67;;;29.17;;
18001;SDS011;9126;48.160;17.130;2022-11-20T02:56:11;33.97;;;30.37;;
18001;SDS011;9126;48.160;17.130;2022-11-20T02:58:39;36.83;;;32.20;;
18001;SDS011;9126;48.160;17.130;2022-11-20T03:01:06;39.17;;;34.50;;
18001;SDS011;9126;48.160;17.130;2022-11-20T03:03:33;37.17;;;33.13;;
18001;SDS011;9126;48.160;17.130;2022-11-20T03:06:00;40.70;;;34.37;;
18001;SDS011;9126;48.160;17.130;2022-11-20T03:08:27;43.03;;;36.80;;
18001;SDS011;9126;48.160;17.130;2022-11-20T03:10:54;42.93;;;36.70;;
18001;SDS011;9126;48.160;17.130;2022-11-20T03:13:21;45.77;;;37.13;;
18001;SDS011;9126;48.160;17.130;2022-11-20T03:15:49;46.90;;;40.23;;
18001;SDS011;9126;48.160;17.130;2022-11-20T03:18:16;53.33;;;43.27;;
18001;SDS011;9126;48.160;17.130;2022-11-20T03:20:43;49.23;;;40.97;;
18001;SDS011;9126;48.160;17.130;2022-11-20T03:23:10;52.50;;;43.20;;
18001;SDS011;9126;48.160;17.130;2022-11-20T03:25:37;42.43;;;35.43;;
18001;SDS011;9126;48.160;17.130;2022-11-20T03:28:04;39.47;;;34.37;;
18001;SDS011;9126;48.160;17.130;2022-11-20T03:30:31;39.97;;;32.13;;
18001;SDS011;9126;48.160;17.130;2022-11-20T03:33:00;38.53;;;34.33;;
18001;SDS011;9126;48.160;17.130;2022-11-20T03:35:27;33.70;;;30.00;;
18001;SDS011;9126;48.160;17.130;2022-11-20T03:37:54;35.73;;;31.87;;
18001;SDS011;9126;48.160;17.130;2022-11-20T03:40:20;38.27;;;32.70;;
18001;SDS011;9126;48.160;17.130;2022-11-20T03:42:47;43.23;;;31.97;;
18001;SDS011;9126;48.160;17.130;2022-11-20T03:45:15;42.93;;;36.17;;
18001;SDS011;9126;48.160;17.130;2022-11-20T03:47:43;40.53;;;34.43;;
18001;SDS011;9126;48.160;17.130;2022-11-20T03:50:12;37.73;;;33.53;;
18001;SDS011;9126;48.160;17.130;2022-11-20T03:52:40;38.60;;;34.40;;
18001;SDS011;9126;48.160;17.130;2022-11-20T03:55:08;37.60;;;32.70;;
18001;SDS011;9126;48.160;17.130;2022-11-20T03:57:35;40.17;;;34.30;;
18001;SDS011;9126;48.160;17.130;2022-11-20T04:00:02;36.37;;;31.73;;
18001;SDS011;9126;48.160;17.130;2022-11-20T04:02:30;34.37;;;30.70;;
18001;SDS011;9126;48.160;17.130;2022-11-20T04:04:57;35.00;;;31.27;;
18001;SDS011;9126;48.160;17.130;2022-11-20T04:07:25;35.33;;;30.90;;
18001;SDS011;9126;48.160;17.130;2022-11-20T04:09:52;35.13;;;29.40;;
18001;SDS011;9126;48.160;17.130;2022-11-20T04:12:19;35.93;;;31.93;;
18001;SDS011;9126;48.160;17.130;2022-11-20T04:14:46;37.67;;;31.63;;
18001;SDS011;9126;48.160;17.130;2022-11-20T04:17:13;38.90;;;31.87;;
18001;SDS011;9126;48.160;17.130;2022-11-20T04:19:40;37.37;;;31.60;;
18001;SDS011;9126;48.160;17.130;2022-11-20T04:22:07;36.33;;;32.20;;
18001;SDS011;9126;48.160;17.130;2022-11-20T04:24:35;42.73;;;36.07;;
18001;SDS011;9126;48.160;17.130;2022-11-20T04:27:02;49.43;;;40.03;;
18001;SDS011;9126;48.160;17.130;2022-11-20T04:29:29;47.40;;;40.20;;
18001;SDS011;9126;48.160;17.130;2022-11-20T04:31:56;57.27;;;43.70;;
18001;SDS011;9126;48.160;17.130;2022-11-20T04:34:23;61.67;;;46.03;;
18001;SDS011;9126;48.160;17.130;2022-11-20T04:36:50;49.03;;;40.40;;
18001;SDS011;9126;48.160;17.130;2022-11-20T04:39:17;47.97;;;38.20;;
18001;SDS011;9126;48.160;17.130;2022-11-20T04:41:45;48.23;;;41.00;;
18001;SDS011;9126;48.160;17.130;2022-11-20T04:44:12;50.30;;;41.93;;
18001;SDS011;9126;48.160;17.130;2022-11-20T04:46:39;47.63;;;39.53;;
18001;SDS011;9126;48.160;17.130;2022-11-20T04:49:07;47.93;;;39.00;;
18001;SDS011;9126;48.160;17.130;2022-11-20T04:51:35;44.30;;;38.40;;
18001;SDS011;9126;48.160;17.130;2022-11-20T04:54:02;40.27;;;35.67;;
18001;SDS011;9126;48.160;17.130;2022-11-20T04:56:29;44.53;;;36.37;;
18001;SDS011;9126;48.160;17.130;2022-11-20T04:59:00;39.60;;;34.17;;
18001;SDS011;9126;48.160;17.130;2022-11-20T05:01:27;39.30;;;34.83;;
18001;SDS011;9126;48.160;17.130;2022-11-20T05:03:54;39.13;;;34.10;;
18001;SDS011;9126;48.160;17.130;2022-11-20T05:06:21;37.37;;;33.17;;
18001;SDS011;9126;48.160;17.130;2022-11-20T05:08:48;37.57;;;33.47;;
18001;SDS011;9126;48.160;17.130;2022-11-20T05:11:16;38.03;;;32.30;;
18001;SDS011;9126;48.160;17.130;2022-11-20T05:13:45;39.80;;;33.53;;
18001;SDS011;9126;48.160;17.130;2022-11-20T05:16:14;36.63;;;32.63;;
18001;SDS011;9126;48.160;17.130;2022-11-20T05:18:42;37.20;;;32.53;;
18001;SDS011;9126;48.160;17.130;2022-11-20T05:21:10;37.43;;;33.07;;
18001;SDS011;9126;48.160;17.130;2022-11-20T05:23:38;38.50;;;34.30;;
18001;SDS011;9126;48.160;17.130;2022-11-20T05:26:06;40.03;;;34.87;;
18001;SDS011;9126;48.160;17.130;2022-11-20T05:28:34;39.70;;;34.50;;
18001;SDS011;9126;48.160;17.130;2022-11-20T05:31:05;42.87;;;33.73;;
18001;SDS011;9126;48.160;17.130;2022-11-20T05:33:34;36.20;;;32.07;;
18001;SDS011;9126;48.160;17.130;2022-11-20T05:36:02;39.07;;;34.47;;
18001;SDS011;9126;48.160;17.130;2022-11-20T05:38:30;40.30;;;34.23;;
18001;SDS011;9126;48.160;17.130;2022-11-20T05:41:02;38.37;;;33.57;;
18001;SDS011;9126;48.160;17.130;2022-11-20T05:43:31;39.67;;;34.80;;
18001;SDS011;9126;48.160;17.130;2022-11-20T05:45:59;38.43;;;34.27;;
18001;SDS011;9126;48.160;17.130;2022-11-20T05:48:27;39.50;;;33.43;;
18001;SDS011;9126;48.160;17.130;2022-11-20T05:50:55;39.77;;;32.80;;
18001;SDS011;9126;48.160;17.130;2022-11-20T05:53:23;38.70;;;33.47;;
18001;SDS011;9126;48.160;17.130;2022-11-20T05:55:55;36.13;;;32.23;;
18001;SDS011;9126;48.160;17.130;2022-11-20T05:58:23;42.60;;;34.40;;
18001;SDS011;9126;48.160;17.130;2022-11-20T06:00:50;42.57;;;33.50;;
18001;SDS011;9126;48.160;17.130;2022-11-20T06:03:17;40.43;;;33.33;;
18001;SDS011;9126;48.160;17.130;2022-11-20T06:05:44;41.03;;;34.37;;
18001;SDS011;9126;48.160;17.130;2022-11-20T06:08:12;40.97;;;34.53;;
18001;SDS011;9126;48.160;17.130;2022-11-20T06:10:39;41.13;;;34.63;;
18001;SDS011;9126;48.160;17.130;2022-11-20T06:13:06;39.23;;;33.73;;
18001;SDS011;9126;48.160;17.130;2022-11-20T06:15:33;40.73;;;34.03;;
18001;SDS011;9126;48.160;17.130;2022-11-20T06:18:00;38.63;;;34.43;;
18001;SDS011;9126;48.160;17.130;2022-11-20T06:20:27;40.13;;;35.47;;
18001;SDS011;9126;48.160;17.130;2022-11-20T06:22:54;45.03;;;36.77;;
18001;SDS011;9126;48.160;17.130;2022-11-20T06:25:22;40.47;;;34.97;;
18001;SDS011;9126;48.160;17.130;2022-11-20T06:27:49;39.57;;;35.07;;
18001;SDS011;9126;48.160;17.130;2022-11-20T06:30:16;40.73;;;34.63;;
18001;SDS011;9126;48.160;17.130;2022-11-20T06:32:43;39.63;;;33.03;;
18001;SDS011;9126;48.160;17.130;2022-11-20T06:35:10;39.47;;;33.70;;
18001;SDS011;9126;48.160;17.130;2022-11-20T06:37:37;40.17;;;34.23;;
18001;SDS011;9126;48.160;17.130;2022-11-20T06:40:04;41.90;;;34.27;;
18001;SDS011;9126;48.160;17.130;2022-11-20T06:42:34;42.60;;;32.83;;
18001;SDS011;9126;48.160;17.130;2022-11-20T06:45:00;42.03;;;34.63;;
18001;SDS011;9126;48.160;17.130;2022-11-20T06:47:27;41.27;;;35.17;;
18001;SDS011;9126;48.160;17.130;2022-11-20T06:49:54;41.73;;;35.10;;
18001;SDS011;9126;48.160;17.130;2022-11-20T06:52:21;44.13;;;33.97;;
18001;SDS011;9126;48.160;17.130;2022-11-20T06:54:48;43.00;;;35.43;;
18001;SDS011;9126;48.160;17.130;2022-11-20T06:57:15;41.27;;;34.67;;
18001;SDS011;9126;48.160;17.130;2022-11-20T06:59:43;42.30;;;34.60;;
18001;SDS011;9126;48.160;17.130;2022-11-20T07:02:10;41.07;;;34.43;;
18001;SDS011;9126;48.160;17.130;2022-11-20T07:04:40;40.60;;;34.27;;
18001;SDS011;9126;48.160;17.130;2022-11-20T07:07:07;43.60;;;36.53;;
18001;SDS011;9126;48.160;17.130;2022-11-20T07:09:35;41.13;;;34.33;;
18001;SDS011;9126;48.160;17.130;2022-11-20T07:12:02;43.47;;;35.03;;
18001;SDS011;9126;48.160;17.130;2022-11-20T07:14:29;41.80;;;35.57;;
18001;SDS011;9126;48.160;17.130;2022-11-20T07:16:57;41.57;;;36.00;;
18001;SDS011;9126;48.160;17.130;2022-11-20T07:19:24;42.47;;;36.20;;
18001;SDS011;9126;48.160;17.130;2022-11-20T07:21:53;42.83;;;35.90;;
18001;SDS011;9126;48.160;17.130;2022-11-20T07:24:20;40.97;;;34.63;;
18001;SDS011;9126;48.160;17.130;2022-11-20T07:26:47;43.50;;;36.73;;
18001;SDS011;9126;48.160;17.130;2022-11-20T07:29:14;44.20;;;36.50;;
18001;SDS011;9126;48.160;17.130;2022-11-20T07:31:41;38.97;;;34.73;;
18001;SDS011;9126;48.160;17.130;2022-11-20T07:34:09;44.73;;;36.07;;
18001;SDS011;9126;48.160;17.130;2022-11-20T07:36:36;42.57;;;35.17;;
18001;SDS011;9126;48.160;17.130;2022-11-20T07:39:03;44.37;;;37.33;;
18001;SDS011;9126;48.160;17.130;2022-11-20T07:41:30;42.83;;;35.53;;
18001;SDS011;9126;48.160;17.130;2022-11-20T07:43:57;46.57;;;36.87;;
18001;SDS011;9126;48.160;17.130;2022-11-20T07:46:24;43.63;;;33.93;;
18001;SDS011;9126;48.160;17.130;2022-11-20T07:48:51;43.70;;;34.97;;
18001;SDS011;9126;48.160;17.130;2022-11-20T07:51:20;41.63;;;34.57;;
18001;SDS011;9126;48.160;17.130;2022-11-20T07:53:52;42.33;;;35.03;;
18001;SDS011;9126;48.160;17.130;2022-11-20T07:56:19;41.40;;;34.37;;
18001;SDS011;9126;48.160;17.130;2022-11-20T07:58:46;42.73;;;35.17;;
18001;SDS011;9126;48.160;17.130;2022-11-20T08:01:13;41.53;;;34.47;;
18001;SDS011;9126;48.160;17.130;2022-11-20T08:03:40;43.60;;;34.97;;
18001;SDS011;9126;48.160;17.130;2022-11-20T08:06:07;41.07;;;32.93;;
18001;SDS011;9126;48.160;17.130;2022-11-20T08:08:36;38.93;;;32.37;;
18001;SDS011;9126;48.160;17.130;2022-11-20T08:11:04;35.83;;;31.90;;
18001;SDS011;9126;48.160;17.130;2022-11-20T08:13:57;36.17;;;29.83;;
18001;SDS011;9126;48.160;17.130;2022-11-20T08:16:40;34.40;;;30.67;;
18001;SDS011;9126;48.160;17.130;2022-11-20T08:19:08;32.83;;;29.33;;
18001;SDS011;9126;48.160;17.130;2022-11-20T08:21:35;32.40;;;28.90;;
18001;SDS011;9126;48.160;17.130;2022-11-20T08:24:04;35.33;;;29.40;;
18001;SDS011;9126;48.160;17.130;2022-11-20T08:26:32;33.87;;;28.10;;
18001;SDS011;9126;48.160;17.130;2022-11-20T08:29:02;34.60;;;30.77;;
18001;SDS011;9126;48.160;17.130;2022-11-20T08:31:29;32.97;;;27.33;;
18001;SDS011;9126;48.160;17.130;2022-11-20T08:33:56;30.80;;;26.50;;
18001;SDS011;9126;48.160;17.130;2022-11-20T08:36:24;31.10;;;27.57;;
18001;SDS011;9126;48.160;17.130;2022-11-20T08:38:52;31.07;;;27.10;;
18001;SDS011;9126;48.160;17.130;2022-11-20T08:41:22;33.50;;;28.00;;
18001;SDS011;9126;48.160;17.130;2022-11-20T08:43:53;33.97;;;28.73;;
18001;SDS011;9126;48.160;17.130;2022-11-20T08:46:22;36.60;;;29.57;;
18001;SDS011;9126;48.160;17.130;2022-11-20T08:48:50;35.13;;;28.87;;
18001;SDS011;9126;48.160;17.130;2022-11-20T08:51:17;34.77;;;27.60;;
18001;SDS011;9126;48.160;17.130;2022-11-20T08:53:44;39.63;;;32.53;;
18001;SDS011;9126;48.160;17.130;2022-11-20T08:56:13;36.80;;;29.73;;
18001;SDS011;9126;48.160;17.130;2022-11-20T08:58:45;38.00;;;31.60;;
18001;SDS011;9126;48.160;17.130;2022-11-20T09:01:12;41.80;;;33.47;;
18001;SDS011;9126;48.160;17.130;2022-11-20T09:03:39;48.53;;;37.07;;
18001;SDS011;9126;48.160;17.130;2022-11-20T09:06:07;50.53;;;38.27;;
18001;SDS011;9126;48.160;17.130;2022-11-20T09:08:34;48.17;;;35.23;;
18001;SDS011;9126;48.160;17.130;2022-11-20T09:11:02;45.47;;;35.30;;
18001;SDS011;9126;48.160;17.130;2022-11-20T09:13:30;48.20;;;35.63;;
18001;SDS011;9126;48.160;17.130;2022-11-20T09:16:01;49.73;;;36.80;;
18001;SDS011;9126;48.160;17.130;2022-11-20T09:18:31;45.93;;;36.00;;
18001;SDS011;9126;48.160;17.130;2022-11-20T09:20:59;41.40;;;33.33;;
18001;SDS011;9126;48.160;17.130;2022-11-20T09:23:27;38.93;;;32.70;;
18001;SDS011;9126;48.160;17.130;2022-11-20T09:26:01;37.83;;;30.87;;
18001;SDS011;9126;48.160;17.130;2022-11-20T09:28:29;40.33;;;31.93;;
18001;SDS011;9126;48.160;17.130;2022-11-20T09:30:56;45.30;;;33.83;;
18001;SDS011;9126;48.160;17.130;2022-11-20T09:33:24;40.63;;;33.33;;
18001;SDS011;9126;48.160;17.130;2022-11-20T09:35:51;44.23;;;33.83;;
18001;SDS011;9126;48.160;17.130;2022-11-20T09:38:18;43.17;;;34.43;;
18001;SDS011;9126;48.160;17.130;2022-11-20T09:40:47;40.77;;;31.53;;
18001;SDS011;9126;48.160;17.130;2022-11-20T09:43:21;42.53;;;33.77;;
18001;SDS011;9126;48.160;17.130;2022-11-20T09:46:03;43.87;;;33.90;;
18001;SDS011;9126;48.160;17.130;2022-11-20T09:48:40;43.07;;;33.37;;
18001;SDS011;9126;48.160;17.130;2022-11-20T09:51:16;44.13;;;32.27;;
18001;SDS011;9126;48.160;17.130;2022-11-20T09:53:56;44.10;;;33.73;;
18001;SDS011;9126;48.160;17.130;2022-11-20T09:56:33;39.37;;;30.97;;
18001;SDS011;9126;48.160;17.130;2022-11-20T09:59:05;39.80;;;30.30;;
18001;SDS011;9126;48.160;17.130;2022-11-20T10:01:35;40.77;;;30.27;;
18001;SDS011;9126;48.160;17.130;2022-11-20T10:04:09;42.53;;;30.10;;
18001;SDS011;9126;48.160;17.130;2022-11-20T10:06:41;44.27;;;31.43;;
18001;SDS011;9126;48.160;17.130;2022-11-20T10:09:16;41.50;;;30.57;;
18001;SDS011;9126;48.160;17.130;2022-11-20T10:11:51;41.50;;;31.70;;
18001;SDS011;9126;48.160;17.130;2022-11-20T10:14:30;40.60;;;30.93;;
18001;SDS011;9126;48.160;17.130;2022-11-20T10:17:09;43.40;;;31.57;;
18001;SDS011;9126;48.160;17.130;2022-11-20T10:19:51;38.83;;;30.90;;
18001;SDS011;9126;48.160;17.130;2022-11-20T10:22:31;40.47;;;31.57;;
18001;SDS011;9126;48.160;17.130;2022-11-20T10:25:12;40.37;;;32.37;;
18001;SDS011;9126;48.160;17.130;2022-11-20T10:27:45;45.10;;;33.10;;
18001;SDS011;9126;48.160;17.130;2022-11-20T10:30:22;39.20;;;31.87;;
18001;SDS011;9126;48.160;17.130;2022-11-20T10:32:51;41.10;;;30.93;;
18001;SDS011;9126;48.160;17.130;2022-11-20T10:35:23;35.33;;;30.10;;
18001;SDS011;9126;48.160;17.130;2022-11-20T10:37:54;40.00;;;30.97;;
18001;SDS011;9126;48.160;17.130;2022-11-20T10:40:27;41.47;;;30.77;;
18001;SDS011;9126;48.160;17.130;2022-11-20T10:43:00;36.60;;;30.23;;
18001;SDS011;9126;48.160;17.130;2022-11-20T10:45:44;33.53;;;27.90;;
18001;SDS011;9126;48.160;17.130;2022-11-20T10:48:16;37.43;;;28.63;;
18001;SDS011;9126;48.160;17.130;2022-11-20T10:51:03;34.73;;;29.13;;
18001;SDS011;9126;48.160;17.130;2022-11-20T10:53:47;34.53;;;28.97;;
18001;SDS011;9126;48.160;17.130;2022-11-20T10:56:26;40.57;;;28.30;;
18001;SDS011;9126;48.160;17.130;2022-11-20T10:59:10;34.40;;;29.23;;
18001;SDS011;9126;48.160;17.130;2022-11-20T11:01:47;41.37;;;29.40;;
18001;SDS011;9126;48.160;17.130;2022-11-20T11:04:18;38.10;;;31.07;;
18001;SDS011;9126;48.160;17.130;2022-11-20T11:06:58;37.87;;;29.27;;
18001;SDS011;9126;48.160;17.130;2022-11-20T11:09:33;37.33;;;30.90;;
18001;SDS011;9126;48.160;17.130;2022-11-20T11:12:06;36.13;;;28.53;;
18001;SDS011;9126;48.160;17.130;2022-11-20T11:14:41;37.77;;;29.90;;
18001;SDS011;9126;48.160;17.130;2022-11-20T11:17:20;34.17;;;28.67;;
18001;SDS011;9126;48.160;17.130;2022-11-20T11:19:59;37.40;;;30.87;;
18001;SDS011;9126;48.160;17.130;2022-11-20T11:22:29;38.27;;;29.63;;
18001;SDS011;9126;48.160;17.130;2022-11-20T11:24:58;36.70;;;30.00;;
18001;SDS011;9126;48.160;17.130;2022-11-20T11:27:26;39.10;;;30.17;;
18001;SDS011;9126;48.160;17.130;2022-11-20T11:30:01;43.20;;;31.33;;
18001;SDS011;9126;48.160;17.130;2022-11-20T11:32:37;44.17;;;32.07;;
18001;SDS011;9126;48.160;17.130;2022-11-20T11:35:05;40.27;;;31.00;;
18001;SDS011;9126;48.160;17.130;2022-11-20T11:37:36;44.27;;;32.30;;
18001;SDS011;9126;48.160;17.130;2022-11-20T11:40:05;46.37;;;34.60;;
18001;SDS011;9126;48.160;17.130;2022-11-20T11:42:40;39.30;;;30.87;;
18001;SDS011;9126;48.160;17.130;2022-11-20T11:45:11;42.47;;;33.63;;
18001;SDS011;9126;48.160;17.130;2022-11-20T11:47:43;42.47;;;32.03;;
18001;SDS011;9126;48.160;17.130;2022-11-20T11:50:14;41.07;;;32.40;;
18001;SDS011;9126;48.160;17.130;2022-11-20T11:52:45;40.17;;;31.97;;
18001;SDS011;9126;48.160;17.130;2022-11-20T11:55:17;44.77;;;34.47;;
18001;SDS011;9126;48.160;17.130;2022-11-20T11:57:52;43.37;;;32.47;;
18001;SDS011;9126;48.160;17.130;2022-11-20T12:00:26;42.83;;;31.13;;
18001;SDS011;9126;48.160;17.130;2022-11-20T12:02:55;42.37;;;30.23;;
18001;SDS011;9126;48.160;17.130;2022-11-20T12:05:31;38.83;;;30.70;;
18001;SDS011;9126;48.160;17.130;2022-11-20T12:08:05;37.17;;;30.23;;
18001;SDS011;9126;48.160;17.130;2022-11-20T12:10:40;37.03;;;30.43;;
18001;SDS011;9126;48.160;17.130;2022-11-20T12:13:15;36.03;;;29.30;;
18001;SDS011;9126;48.160;17.130;2022-11-20T12:15:49;35.17;;;25.10;;
18001;SDS011;9126;48.160;17.130;2022-11-20T12:18:18;41.10;;;30.47;;
18001;SDS011;9126;48.160;17.130;2022-11-20T12:20:49;37.80;;;30.70;;
18001;SDS011;9126;48.160;17.130;2022-11-20T12:23:34;38.03;;;30.40;;
18001;SDS011;9126;48.160;17.130;2022-11-20T12:26:08;39.63;;;32.03;;
18001;SDS011;9126;48.160;17.130;2022-11-20T12:28:48;36.70;;;29.93;;
18001;SDS011;9126;48.160;17.130;2022-11-20T12:31:31;39.23;;;30.40;;
18001;SDS011;9126;48.160;17.130;2022-11-20T12:34:22;38.83;;;30.90;;
18001;SDS011;9126;48.160;17.130;2022-11-20T12:37:02;36.10;;;28.90;;
18001;SDS011;9126;48.160;17.130;2022-11-20T12:39:36;36.30;;;30.77;;
18001;SDS011;9126;48.160;17.130;2022-11-20T12:42:13;39.13;;;30.63;;
18001;SDS011;9126;48.160;17.130;2022-11-20T12:45:19;37.43;;;27.73;;
18001;SDS011;9126;48.160;17.130;2022-11-20T12:51:04;36.10;;;29.10;;
18001;SDS011;9126;48.160;17.130;2022-11-20T12:53:43;37.77;;;30.27;;
18001;SDS011;9126;48.160;17.130;2022-11-20T12:56:21;36.03;;;31.37;;
18001;SDS011;9126;48.160;17.130;2022-11-20T12:58:59;37.93;;;31.23;;
18001;SDS011;9126;48.160;17.130;2022-11-20T13:01:37;37.70;;;30.47;;
18001;SDS011;9126;48.160;17.130;2022-11-20T13:04:15;35.13;;;30.37;;
18001;SDS011;9126;48.160;17.130;2022-11-20T13:06:57;33.97;;;28.57;;
18001;SDS011;9126;48.160;17.130;2022-11-20T13:09:25;36.63;;;30.17;;
18001;SDS011;9126;48.160;17.130;2022-11-20T13:11:58;37.97;;;30.93;;
18001;SDS011;9126;48.160;17.130;2022-11-20T13:14:32;36.33;;;29.90;;
18001;SDS011;9126;48.160;17.130;2022-11-20T13:17:04;34.73;;;27.47;;
18001;SDS011;9126;48.160;17.130;2022-11-20T13:19:36;37.23;;;30.10;;
18001;SDS011;9126;48.160;17.130;2022-11-20T13:22:03;36.57;;;29.63;;
18001;SDS011;9126;48.160;17.130;2022-11-20T13:24:31;31.93;;;28.50;;
18001;SDS011;9126;48.160;17.130;2022-11-20T13:27:04;32.47;;;27.53;;
18001;SDS011;9126;48.160;17.130;2022-11-20T13:29:44;33.57;;;27.83;;
18001;SDS011;9126;48.160;17.130;2022-11-20T13:32:13;32.30;;;27.77;;
18001;SDS011;9126;48.160;17.130;2022-11-20T13:34:51;32.43;;;27.13;;
18001;SDS011;9126;48.160;17.130;2022-11-20T13:37:24;31.17;;;26.37;;
18001;SDS011;9126;48.160;17.130;2022-11-20T13:40:04;34.10;;;26.97;;
18001;SDS011;9126;48.160;17.130;2022-11-20T13:42:33;30.53;;;25.53;;
18001;SDS011;9126;48.160;17.130;2022-11-20T13:45:08;34.00;;;27.53;;
18001;SDS011;9126;48.160;17.130;2022-11-20T13:47:47;32.90;;;26.60;;
18001;SDS011;9126;48.160;17.130;2022-11-20T13:50:15;33.63;;;26.33;;
18001;SDS011;9126;48.160;17.130;2022-11-20T13:52:44;28.57;;;25.27;;
18001;SDS011;9126;48.160;17.130;2022-11-20T13:55:18;34.60;;;25.57;;
18001;SDS011;9126;48.160;17.130;2022-11-20T13:58:15;31.17;;;25.00;;
18001;SDS011;9126;48.160;17.130;2022-11-20T14:00:55;30.80;;;26.13;;
18001;SDS011;9126;48.160;17.130;2022-11-20T14:03:28;31.50;;;25.50;;
18001;SDS011;9126;48.160;17.130;2022-11-20T14:05:57;31.50;;;25.73;;
18001;SDS011;9126;48.160;17.130;2022-11-20T14:08:31;32.10;;;25.20;;
18001;SDS011;9126;48.160;17.130;2022-11-20T14:11:03;29.23;;;24.80;;
18001;SDS011;9126;48.160;17.130;2022-11-20T14:13:32;31.23;;;24.97;;
18001;SDS011;9126;48.160;17.130;2022-11-20T14:15:59;30.63;;;25.20;;
18001;SDS011;9126;48.160;17.130;2022-11-20T14:18:26;30.60;;;26.37;;
18001;SDS011;9126;48.160;17.130;2022-11-20T14:20:54;31.10;;;25.50;;
18001;SDS011;9126;48.160;17.130;2022-11-20T14:23:25;29.97;;;24.97;;
18001;SDS011;9126;48.160;17.130;2022-11-20T14:25:53;31.23;;;27.30;;
18001;SDS011;9126;48.160;17.130;2022-11-20T14:28:23;29.33;;;25.00;;
18001;SDS011;9126;48.160;17.130;2022-11-20T14:30:54;30.27;;;25.57;;
18001;SDS011;9126;48.160;17.130;2022-11-20T14:33:21;30.63;;;24.43;;
18001;SDS011;9126;48.160;17.130;2022-11-20T14:35:51;28.60;;;24.33;;
18001;SDS011;9126;48.160;17.130;2022-11-20T14:38:21;30.40;;;25.67;;
18001;SDS011;9126;48.160;17.130;2022-11-20T14:40:50;31.57;;;24.80;;
18001;SDS011;9126;48.160;17.130;2022-11-20T14:43:19;32.17;;;27.30;;